createdAt,value
2023-01-08T00:00:03.245Z,9.83
2023-01-08T00:03:02.311Z,9.00
2023-01-08T00:05:39.763Z,11.67
2023-01-08T00:08:18.482Z,14.00
2023-01-08T00:11:11.591Z,14.27
2023-01-08T00:14:04.953Z,11.57
2023-01-08T00:16:39.687Z,10.27
2023-01-08T00:19:15.222Z,8.80
2023-01-08T00:21:49.947Z,8.50
2023-01-08T00:24:30.359Z,10.17
2023-01-08T00:27:15.911Z,8.93
2023-01-08T00:30:07.760Z,10.23
2023-01-08T00:32:39.976Z,10.67
2023-01-08T00:35:13.108Z,9.93
2023-01-08T00:37:49.261Z,10.50
2023-01-08T00:40:42.606Z,10.90
2023-01-08T00:43:17.443Z,11.20
2023-01-08T00:46:10.504Z,10.40
2023-01-08T00:48:42.034Z,9.30
2023-01-08T00:51:12.535Z,9.50
2023-01-08T00:53:46.998Z,8.77
2023-01-08T00:56:19.293Z,8.60
2023-01-08T00:59:11.128Z,11.43
2023-01-08T01:01:42.328Z,12.30
2023-01-08T01:04:12.897Z,10.10
2023-01-08T01:06:46.932Z,9.80
2023-01-08T01:09:18.563Z,10.43
2023-01-08T01:11:49.547Z,10.53
2023-01-08T01:14:19.621Z,8.40
2023-01-08T01:17:09.473Z,9.37
2023-01-08T01:19:39.363Z,9.90
2023-01-08T01:22:08.441Z,9.87
2023-01-08T01:24:42.003Z,10.10
2023-01-08T01:27:13.067Z,10.20
2023-01-08T01:29:44.027Z,11.40
2023-01-08T01:32:13.876Z,13.87
2023-01-08T01:34:44.667Z,16.63
2023-01-08T01:37:17.948Z,13.30
2023-01-08T01:39:49.524Z,10.47
2023-01-08T01:42:34.677Z,9.73
2023-01-08T01:45:04.371Z,10.00
2023-01-08T01:47:40.279Z,9.03
2023-01-08T01:50:13.473Z,9.70
2023-01-08T01:52:47.349Z,10.17
2023-01-08T01:55:19.173Z,10.97
2023-01-08T01:57:54.268Z,10.37
2023-01-08T02:00:24.052Z,10.10
2023-01-08T02:02:54.703Z,11.27
2023-01-08T02:05:23.981Z,11.17
2023-01-08T02:07:58.986Z,11.60
2023-01-08T02:10:37.444Z,13.40
2023-01-08T02:13:14.571Z,13.33
2023-01-08T02:15:54.300Z,11.10
2023-01-08T02:18:31.157Z,9.83
2023-01-08T02:21:04.920Z,9.07
2023-01-08T02:23:43.629Z,9.17
2023-01-08T02:26:21.087Z,7.20
2023-01-08T02:28:58.180Z,9.50
2023-01-08T02:31:29.825Z,8.53
2023-01-08T02:33:59.129Z,8.37
2023-01-08T02:36:46.593Z,10.67
2023-01-08T02:39:25.741Z,15.13
2023-01-08T02:42:07.939Z,14.13
2023-01-08T02:44:48.435Z,15.10
2023-01-08T02:47:26.118Z,17.97
2023-01-08T02:50:01.875Z,12.60
2023-01-08T02:52:34.584Z,10.83
2023-01-08T02:55:06.034Z,11.27
2023-01-08T02:57:37.691Z,10.23
2023-01-08T03:00:08.523Z,9.47
2023-01-08T03:02:41.237Z,9.60
2023-01-08T03:05:24.300Z,10.67
2023-01-08T03:07:53.050Z,9.20
2023-01-08T03:10:26.709Z,9.27
2023-01-08T03:13:01.254Z,10.00
2023-01-08T03:15:35.594Z,9.80
2023-01-08T03:18:10.588Z,10.37
2023-01-08T03:20:40.335Z,10.83
2023-01-08T03:23:12.068Z,11.00
2023-01-08T03:25:54.490Z,11.10
2023-01-08T03:28:46.504Z,11.67
2023-01-08T03:31:17.202Z,11.13
2023-01-08T03:33:48.742Z,10.53
2023-01-08T03:36:22.330Z,10.67
2023-01-08T03:38:58.008Z,10.90
2023-01-08T03:41:31.037Z,10.80
2023-01-08T03:44:00.952Z,12.20
2023-01-08T03:46:32.718Z,11.07
2023-01-08T03:49:03.535Z,11.70
2023-01-08T03:51:41.055Z,11.87
2023-01-08T03:54:14.641Z,11.50
2023-01-08T03:56:43.667Z,11.63
2023-01-08T03:59:14.877Z,11.73
2023-01-08T04:01:44.756Z,12.93
2023-01-08T04:04:13.711Z,11.80
2023-01-08T04:06:45.928Z,11.67
2023-01-08T04:09:14.968Z,10.03
2023-01-08T04:11:45.221Z,8.90
2023-01-08T04:14:15.959Z,8.60
2023-01-08T04:16:44.939Z,9.17
2023-01-08T04:19:14.958Z,8.00
2023-01-08T04:21:43.801Z,8.50
2023-01-08T04:24:14.437Z,9.27
2023-01-08T04:26:43.292Z,7.53
2023-01-08T04:29:12.507Z,8.00
2023-01-08T04:31:44.014Z,8.30
2023-01-08T04:34:13.002Z,9.63
2023-01-08T04:36:42.067Z,9.60
2023-01-08T04:39:12.237Z,9.23
2023-01-08T04:41:40.962Z,9.70
2023-01-08T04:44:11.211Z,9.70
2023-01-08T04:46:40.504Z,10.23
2023-01-08T04:49:13.070Z,10.80
2023-01-08T04:51:41.716Z,10.33
2023-01-08T04:54:10.889Z,10.07
2023-01-08T04:56:39.527Z,9.97
2023-01-08T04:59:08.565Z,10.87
2023-01-08T05:01:37.167Z,10.83
2023-01-08T05:04:28.449Z,10.37
2023-01-08T05:06:57.158Z,10.00
2023-01-08T05:09:30.256Z,10.40
2023-01-08T05:11:58.642Z,11.00
2023-01-08T05:14:27.335Z,10.97
2023-01-08T05:16:56.089Z,10.60
2023-01-08T05:19:26.503Z,8.80
2023-01-08T05:21:55.055Z,8.53
2023-01-08T05:24:25.039Z,8.57
2023-01-08T05:26:53.682Z,9.50
2023-01-08T05:29:22.125Z,9.87
2023-01-08T05:31:52.146Z,9.27
2023-01-08T05:34:21.342Z,9.00
2023-01-08T05:36:51.257Z,8.50
2023-01-08T05:39:20.812Z,8.67
2023-01-08T05:41:49.520Z,8.63
2023-01-08T05:44:18.979Z,8.60
2023-01-08T05:46:51.370Z,8.60
2023-01-08T05:49:24.675Z,9.30
2023-01-08T05:51:55.678Z,8.03
2023-01-08T05:54:58.547Z,9.40
2023-01-08T05:57:36.740Z,7.67
2023-01-08T06:00:10.408Z,8.33
2023-01-08T06:02:43.296Z,7.53
2023-01-08T06:05:12.271Z,7.80
2023-01-08T06:07:42.733Z,7.43
2023-01-08T06:10:15.053Z,7.57
2023-01-08T06:12:46.762Z,7.80
2023-01-08T06:15:16.495Z,7.87
2023-01-08T06:18:08.466Z,8.37
2023-01-08T06:20:45.094Z,7.37
2023-01-08T06:23:29.101Z,8.73
2023-01-08T06:55:02.219Z,11.40
2023-01-08T06:58:51.438Z,7.87
2023-01-08T07:01:46.797Z,7.37
2023-01-08T07:04:15.783Z,8.57
2023-01-08T07:07:09.130Z,7.80
2023-01-08T07:09:38.351Z,8.60
2023-01-08T07:12:14.500Z,8.17
2023-01-08T07:14:43.322Z,9.27
2023-01-08T07:20:42.166Z,9.93
2023-01-08T07:23:18.015Z,10.00
2023-01-08T07:26:12.928Z,10.57
2023-01-08T07:28:48.506Z,12.20
2023-01-08T07:31:20.948Z,11.63
2023-01-08T07:33:56.124Z,10.07
2023-01-08T07:36:34.505Z,11.37
2023-01-08T07:39:03.995Z,9.50
2023-01-08T07:41:44.849Z,9.30
2023-01-08T07:44:43.908Z,10.10
2023-01-08T07:47:15.576Z,19.17
2023-01-08T07:49:48.482Z,9.07
2023-01-08T07:52:18.398Z,8.07
2023-01-08T07:54:49.440Z,8.47
2023-01-08T07:57:19.713Z,8.17
2023-01-08T08:00:34.259Z,9.73
2023-01-08T08:03:16.883Z,8.83
2023-01-08T08:05:57.333Z,8.30
2023-01-08T08:11:33.670Z,10.47
2023-01-08T08:14:07.900Z,7.93
2023-01-08T08:30:09.445Z,9.53
2023-01-08T08:37:43.384Z,9.10
2023-01-08T08:42:24.836Z,8.93
2023-01-08T08:45:36.364Z,10.43
2023-01-08T09:00:21.511Z,7.87
2023-01-08T09:54:50.372Z,8.83
2023-01-08T09:57:23.917Z,5.67
2023-01-08T09:59:56.221Z,7.40
2023-01-08T10:02:29.133Z,8.97
2023-01-08T10:05:03.167Z,7.67
2023-01-08T10:07:35.341Z,6.90
2023-01-08T10:10:17.039Z,6.70
2023-01-08T10:12:55.982Z,6.60
2023-01-08T10:15:26.895Z,6.93
2023-01-08T10:18:06.149Z,6.23
2023-01-08T10:20:41.882Z,5.50
2023-01-08T10:35:08.071Z,5.77
2023-01-08T10:37:42.923Z,5.87
2023-01-08T10:40:25.923Z,5.87
2023-01-08T10:42:57.454Z,5.27
2023-01-08T10:45:29.918Z,5.13
2023-01-08T10:48:03.945Z,4.90
2023-01-08T10:50:37.329Z,5.00
2023-01-08T10:53:07.689Z,4.23
2023-01-08T11:04:23.676Z,5.07
2023-01-08T11:07:00.149Z,4.57
2023-01-08T11:12:36.157Z,3.93
2023-01-08T11:15:25.402Z,4.13
2023-01-08T11:17:55.237Z,4.27
2023-01-08T11:20:30.828Z,3.97
2023-01-08T11:23:08.371Z,4.20
2023-01-08T11:25:37.579Z,4.83
2023-01-08T11:28:13.193Z,5.63
2023-01-08T11:34:33.382Z,5.40
2023-01-08T11:37:06.871Z,4.50
2023-01-08T11:39:40.335Z,5.40
2023-01-08T11:42:21.507Z,7.53
2023-01-08T11:45:04.886Z,4.90
2023-01-08T11:48:05.762Z,5.03
2023-01-08T11:50:41.477Z,4.53
2023-01-08T11:53:24.499Z,5.50
2023-01-08T11:56:09.261Z,5.00
2023-01-08T11:58:52.197Z,5.70
2023-01-08T12:01:33.800Z,4.90
2023-01-08T12:04:30.590Z,5.60
2023-01-08T12:07:10.166Z,5.30
2023-01-08T12:09:43.176Z,5.43
2023-01-08T12:12:28.137Z,6.40
2023-01-08T12:15:08.540Z,6.57
2023-01-08T12:19:07.888Z,4.73
2023-01-08T12:21:51.904Z,4.97
2023-01-08T12:24:41.185Z,6.03
2023-01-08T12:27:17.734Z,5.20
2023-01-08T13:16:17.875Z,5.80
2023-01-08T13:42:09.658Z,7.27
2023-01-08T14:06:49.422Z,8.43
2023-01-08T14:18:21.511Z,12.00
2023-01-08T14:25:12.565Z,13.80
2023-01-08T15:01:54.510Z,14.13
2023-01-08T15:31:06.809Z,17.77
2023-01-08T15:38:42.958Z,15.70
2023-01-08T16:35:06.945Z,13.37
2023-01-08T17:00:52.854Z,10.70
2023-01-08T17:04:08.217Z,12.60
2023-01-08T17:07:40.850Z,13.57
2023-01-08T17:20:07.332Z,12.27
2023-01-08T17:22:37.391Z,13.00
2023-01-08T17:25:07.015Z,13.43
2023-01-08T17:27:38.660Z,16.57
2023-01-08T17:30:14.631Z,10.60
2023-01-08T17:32:52.494Z,9.47
2023-01-08T17:35:50.187Z,8.83
2023-01-08T17:38:25.120Z,10.13
2023-01-08T17:45:56.697Z,9.87
2023-01-08T17:49:20.640Z,9.13
2023-01-08T17:52:05.299Z,10.80
2023-01-08T17:54:34.367Z,11.37
2023-01-08T17:57:03.026Z,11.17
2023-01-08T17:59:31.662Z,10.17
2023-01-08T18:02:00.385Z,11.00
2023-01-08T18:05:20.576Z,12.27
2023-01-08T18:08:53.540Z,13.10
2023-01-08T18:19:44.670Z,13.93
2023-01-08T18:22:13.169Z,15.23
2023-01-08T18:24:42.240Z,13.87
2023-01-08T18:27:10.730Z,13.67
2023-01-08T18:29:39.929Z,14.17
2023-01-08T18:32:08.478Z,13.97
2023-01-08T18:34:43.001Z,14.30
2023-01-08T18:37:50.959Z,14.27
2023-01-08T18:40:20.312Z,14.73
2023-01-08T18:42:52.150Z,14.67
2023-01-08T18:45:53.376Z,14.23
2023-01-08T18:53:02.541Z,14.07
2023-01-08T18:56:40.555Z,14.80
2023-01-08T19:00:27.296Z,15.77
2023-01-08T19:03:36.776Z,15.67
2023-01-08T19:07:34.098Z,14.80
2023-01-08T19:10:27.911Z,13.10
2023-01-08T19:13:09.860Z,13.90
2023-01-08T19:15:47.883Z,15.43
2023-01-08T19:18:21.520Z,13.20
2023-01-08T19:20:55.712Z,12.10
2023-01-08T19:23:36.310Z,13.03
2023-01-08T19:26:28.001Z,12.20
2023-01-08T19:29:39.923Z,14.20
2023-01-08T19:32:28.487Z,14.90
2023-01-08T19:35:02.831Z,15.17
2023-01-08T19:37:33.516Z,15.10
2023-01-08T19:40:09.030Z,17.37
2023-01-08T19:46:28.916Z,22.77
2023-01-08T19:49:17.755Z,19.47
2023-01-08T19:51:54.819Z,18.47
2023-01-08T19:54:30.029Z,17.73
2023-01-08T19:56:58.545Z,19.60
2023-01-08T19:59:29.065Z,17.20
2023-01-08T20:01:57.521Z,16.87
2023-01-08T20:04:26.732Z,20.03
2023-01-08T20:06:57.613Z,23.57
2023-01-08T20:09:29.127Z,30.13
2023-01-08T20:11:58.297Z,29.30
2023-01-08T20:14:26.603Z,21.43
2023-01-08T20:16:56.673Z,16.20
2023-01-08T20:19:30.605Z,16.33
2023-01-08T20:22:04.839Z,16.13
2023-01-08T20:25:06.673Z,16.13
2023-01-08T20:28:54.346Z,15.63
2023-01-08T20:31:26.172Z,15.27
2023-01-08T20:34:02.027Z,14.97
2023-01-08T20:36:33.855Z,18.10
2023-01-08T20:39:11.968Z,17.47
2023-01-08T20:42:00.884Z,15.37
2023-01-08T20:44:53.172Z,14.13
2023-01-08T20:47:21.959Z,13.87
2023-01-08T20:50:12.309Z,14.27
2023-01-08T20:52:51.690Z,15.20
2023-01-08T20:55:32.659Z,14.47
2023-01-08T20:58:24.215Z,14.37
2023-01-08T21:01:31.123Z,17.40
2023-01-08T21:04:26.868Z,15.30
2023-01-08T21:07:28.347Z,15.27
2023-01-08T21:10:35.413Z,15.60
2023-01-08T21:13:50.017Z,16.50
2023-01-08T21:17:01.581Z,26.27
2023-01-08T21:19:43.988Z,15.37
2023-01-08T21:22:13.852Z,15.73
2023-01-08T21:24:43.379Z,14.83
2023-01-08T21:27:11.751Z,15.53
2023-01-08T21:29:40.597Z,14.33
2023-01-08T21:32:08.916Z,14.03
2023-01-08T21:34:37.671Z,16.23
2023-01-08T21:37:08.622Z,15.27
2023-01-08T21:47:19.224Z,15.10
2023-01-08T21:50:14.404Z,15.67
2023-01-08T21:53:17.318Z,15.83
2023-01-08T21:56:16.554Z,14.37
2023-01-08T21:59:00.127Z,14.43
2023-01-08T22:01:36.880Z,15.53
2023-01-08T22:04:14.794Z,15.67
2023-01-08T22:06:43.815Z,15.13
2023-01-08T22:12:25.976Z,15.43
2023-01-08T22:14:55.203Z,14.87
2023-01-08T22:17:30.773Z,15.70
2023-01-08T22:20:01.324Z,15.13
2023-01-08T22:22:30.256Z,14.67
2023-01-08T22:25:00.001Z,13.40
2023-01-08T22:27:30.367Z,13.60
2023-01-08T22:29:59.791Z,14.20
2023-01-08T23:01:26.352Z,13.80
2023-01-08T23:14:53.951Z,14.17
2023-01-08T23:55:05.242Z,12.63
